createdAt,value
2017-03-25T00:06:57.480Z,-57
2017-03-25T00:16:57.507Z,-56
2017-03-25T00:26:57.162Z,-56
2017-03-25T00:36:57.434Z,-57
2017-03-25T00:46:58.021Z,-58
2017-03-25T00:56:57.208Z,-56
2017-03-25T01:06:57.137Z,-57
2017-03-25T01:16:58.181Z,-57
2017-03-25T01:26:57.467Z,-56
2017-03-25T01:36:57.977Z,-58
2017-03-25T01:46:59.185Z,-56
2017-03-25T01:56:57.106Z,-57
2017-03-25T02:06:57.217Z,-57
2017-03-25T02:16:57.190Z,-57
2017-03-25T02:26:57.079Z,-57
2017-03-25T02:36:57.047Z,-57
2017-03-25T02:46:57.102Z,-56
2017-03-25T02:56:57.229Z,-57
2017-03-25T03:06:57.114Z,-56
2017-03-25T03:16:57.111Z,-57
2017-03-25T03:26:57.102Z,-58
2017-03-25T03:36:57.023Z,-56
2017-03-25T03:46:57.123Z,-57
2017-03-25T03:56:57.060Z,-57
2017-03-25T04:06:56.983Z,-57
2017-03-25T04:16:57.074Z,-57
2017-03-25T04:26:57.054Z,-57
2017-03-25T04:36:57.025Z,-55
2017-03-25T04:46:57.035Z,-56
2017-03-25T04:56:56.982Z,-56
2017-03-25T05:06:56.959Z,-56
2017-03-25T05:16:57.075Z,-58
2017-03-25T05:26:57.014Z,-57
2017-03-25T05:36:57.121Z,-56
2017-03-25T05:46:57.043Z,-57
2017-03-25T05:56:56.998Z,-56
2017-03-25T06:06:57.074Z,-56
2017-03-25T06:16:56.977Z,-56
2017-03-25T06:26:57.020Z,-56
2017-03-25T06:36:57.051Z,-56
2017-03-25T06:46:56.974Z,-56
2017-03-25T06:56:57.055Z,-57
2017-03-25T07:06:57.049Z,-58
2017-03-25T07:16:56.969Z,-58
2017-03-25T07:26:56.958Z,-57
2017-03-25T07:36:57.028Z,-58
2017-03-25T07:46:56.985Z,-57
2017-03-25T07:56:57.004Z,-56
2017-03-25T08:06:56.975Z,-56
2017-03-25T08:16:56.942Z,-56
2017-03-25T08:26:56.924Z,-58
2017-03-25T08:36:56.970Z,-56
2017-03-25T08:46:56.901Z,-56
2017-03-25T08:56:56.995Z,-56
2017-03-25T09:06:56.942Z,-57
2017-03-25T09:16:57.023Z,-57
2017-03-25T09:26:57.168Z,-58
2017-03-25T09:37:10.363Z,-57
2017-03-25T09:46:57.059Z,-58
2017-03-25T09:56:56.945Z,-55
2017-03-25T10:06:57.019Z,-57
2017-03-25T10:16:57.065Z,-59
2017-03-25T10:26:57.039Z,-56
2017-03-25T10:36:57.047Z,-59
2017-03-25T10:46:56.973Z,-62
2017-03-25T10:56:57.088Z,-58
2017-03-25T11:06:57.083Z,-61
2017-03-25T11:16:56.917Z,-60
2017-03-25T11:26:56.888Z,-61
2017-03-25T11:36:57.009Z,-57
2017-03-25T11:46:57.260Z,-57
2017-03-25T11:56:57.211Z,-58
2017-03-25T12:06:57.008Z,-57
2017-03-25T12:16:57.160Z,-60
2017-03-25T12:26:58.091Z,-62
2017-03-25T12:36:57.104Z,-61
2017-03-25T12:46:57.069Z,-57
2017-03-25T12:56:57.133Z,-57
2017-03-25T13:06:57.239Z,-60
2017-03-25T13:16:57.019Z,-57
2017-03-25T13:26:57.058Z,-57
2017-03-25T13:36:57.060Z,-57
2017-03-25T13:46:56.954Z,-60
2017-03-25T13:56:56.944Z,-59
2017-03-25T14:06:56.973Z,-59
2017-03-25T14:16:56.954Z,-60
2017-03-25T14:26:56.942Z,-59
2017-03-25T14:36:57.149Z,-59
2017-03-25T14:46:56.914Z,-60
2017-03-25T14:56:56.911Z,-60
2017-03-25T15:06:56.903Z,-59
2017-03-25T15:16:56.971Z,-60
2017-03-25T15:26:56.951Z,-60
2017-03-25T15:36:56.909Z,-60
2017-03-25T15:46:56.906Z,-60
2017-03-25T15:56:56.924Z,-60
2017-03-25T16:06:56.922Z,-60
2017-03-25T16:16:56.950Z,-60
2017-03-25T16:26:56.941Z,-60
2017-03-25T16:36:56.997Z,-60
2017-03-25T16:46:56.909Z,-60
2017-03-25T16:56:56.947Z,-57
2017-03-25T17:06:56.933Z,-59
2017-03-25T17:16:56.883Z,-58
2017-03-25T17:26:57.024Z,-60
2017-03-25T17:36:56.928Z,-59
2017-03-25T17:46:56.957Z,-59
2017-03-25T17:56:56.945Z,-59
2017-03-25T18:06:56.910Z,-59
2017-03-25T18:16:56.913Z,-60
2017-03-25T18:26:56.906Z,-59
2017-03-25T18:36:56.913Z,-60
2017-03-25T18:46:56.913Z,-60
2017-03-25T18:56:56.989Z,-60
2017-03-25T19:06:56.906Z,-59
2017-03-25T19:16:56.947Z,-59
2017-03-25T19:26:56.922Z,-59
2017-03-25T19:36:56.914Z,-59
2017-03-25T19:46:56.924Z,-59
2017-03-25T19:56:56.915Z,-59
2017-03-25T20:06:56.904Z,-60
2017-03-25T20:16:56.908Z,-59
2017-03-25T20:26:56.902Z,-60
2017-03-25T20:36:56.917Z,-59
2017-03-25T20:46:56.905Z,-59
2017-03-25T20:56:56.876Z,-60
2017-03-25T21:06:56.929Z,-59
2017-03-25T21:16:56.962Z,-60
2017-03-25T21:26:56.906Z,-59
2017-03-25T21:36:56.892Z,-60
2017-03-25T21:46:56.899Z,-59
2017-03-25T21:56:56.892Z,-58
2017-03-25T22:06:56.892Z,-59
2017-03-25T22:16:56.908Z,-59
2017-03-25T22:26:56.909Z,-60
2017-03-25T22:36:56.903Z,-59
2017-03-25T22:46:56.910Z,-61
2017-03-25T22:56:57.066Z,-57
2017-03-25T23:06:56.904Z,-58
2017-03-25T23:16:56.961Z,-58
2017-03-25T23:26:56.911Z,-58
2017-03-25T23:36:56.982Z,-55
2017-03-25T23:46:56.972Z,-57
2017-03-25T23:56:56.888Z,-57
